Pagrindinis puslapis
METAR-TAF:

METAR-TAF

Oro uostai :

Gibraltaras, Gibraltaras

platuma: 36-09N, ilguma: 005-21W, Aukštis: 5 m

Dabartinis oras

Ataskaita buvo paskelbta 36 minutes, ne 07:23 UTC
Vėjas 19 kt iš Rytų
Temperatūra 15°C
Drėgmė 77%
Slėgis 1031 hPa
Matomumas 10 km arba daugiau
Mažai debesys ne aukštis 1800 ft
Išsisklaidę debesys ne aukštis 2500 ft

METAR: LXGB 230723Z 09019KT 9999 FEW018 SCT025 15/11 Q1031 NOSIG RMK BLU BLU

Laikas: 08:59 (07:59 UTC)

Prognozė

Ataskaita buvo paskelbta 2 valandos ir 23 minutes, ne 05:36 UTC
Prognozė galioja nuo 23 metu 06 UTC su 23 metu 15 UTC
Vėjas 20 kt iš Rytų su gūsio iki 30 kt
Matomumas 10 km arba daugiau
Mažai debesys ne aukštis 1600 ft
Išsisklaidę debesys ne aukštis 2500 ft
Tikimybė 40% :
Laikinai
nuo 23 metu 06 UTC su 23 metu 15 UTC
Išsisklaidę debesys ne aukštis 2000 ft

TAF: LXGB 230536Z 2306/2315 09020G30KT 9999 FEW016 SCT025 520002 PROB40 TEMPO 2306/2315 SCT020

Orai ataskaitas ir orų prognozės (METAR, TAF).

turimą stotys yra geltonos ir raudonos taškus žemėlapyje.

Perkelti pele per norėdami pamatyti stoties vardą.

Tada spustelėkite, norėdami matyti oro stebėjimo ir prognozės.

Norėdami pakeisti žemėlapį: spustelėkite ant žalios mygtukų su juodo kryžiaus žemyn,; žalią mygtuką su brūkšneliu, jei norite nutolinti; arba žalių rodyklių gretimoms žemėlapius.


METAR-TAF: